To NAV CANADA Home Page Login to a new session Search on AWWS site Disclaimer Vers la page française équivalente Tips FAQ What's new on the site To the Forecasts and Observations / NOTAM section To "File a Flight Plan" website Publications and other links Update of the User's profile FIC Telephone Numbers My Weather Data Folder Route Weather Data Regional Weather Data Local Weather Data To the Forecasts and Observations / NOTAM section
Request Generated 06/15/2019 at 22:53:43 UTC . Weather information available at that time is displayed.


Go to a specific product

Save this request - Inactive

METAR/TAF

REGINA INTL/SK    

METAR CYQR 152200Z 07012G18KT 15SM BKN022 OVC070 14/08 A2990 RMK SC7AC1 SLP138 DENSITY ALT 2300FT=
METAR CYQR 152100Z 08013KT 15SM BKN019 OVC085 14/08 A2990 RMK SC7AC1 SLP136 DENSITY ALT 2200FT=
METAR CYQR 152000Z 05015KT 15SM BKN018 13/08 A2988 RMK SC7 SLP130 DENSITY ALT 2200FT=

TAF CYQR 151740Z 1518/1618 02010KT P6SM OVC015 TEMPO 1518/1521 P6SM
-SHRA SCT015 OVC025
FM152100 07012G22KT P6SM OVC025 TEMPO 1521/1604 P6SM -SHRA OVC020
FM160400 08008KT P6SM SCT006 OVC050 TEMPO 1604/1614 P6SM VCSH
BKN006 OVC050
FM161400 02008KT P6SM SCT012 BKN030 BKN140 TEMPO 1614/1618 BKN012
BKN030 BKN140
RMK NXT FCST BY 160000Z=


GRAPHICAL FA CLOUDS & WEATHER FORECASTS
To the Product Selector
Graphical FA gfacn32      

GRAPHICAL FA ICING, TURBULENCE & FREEZING LEVEL FORECASTS
To the Product Selector
Graphical FA gfacn32      

FDTEXT Low Level FD. Temperatures are not forecast for the 3,000-foot level.
To the Product Selector
STN YQR - REGINA. SASK for use 3000 6000 9000 12000 18000
FDCN01 CWAO FCST BASED ON 151200 DATA VALID 151800 17-21 3612+06 3321+02 3316-03 3113-14
FDCN02 CWAO FCST BASED ON 151200 DATA VALID 160000 21-06 0106+04 3319+02 3124-03 3018-15
FDCN03 CWAO FCST BASED ON 151200 DATA VALID 161200 06-17 0215+03 3516-02 3225-05 3220-16



Your time UTC time
Weather data provided by Environment Canada and NAV CANADA